This is the latest recevied weather packets stored in our database for station/object WX1NWA. If no packets are shown the sender has not sent any weather packets the latest 10 day(s).
| Time | Temp. | Humidity | Pressure | Rain* | Wind** | Luminosity | Snow |
|---|---|---|---|---|---|---|---|
| 1777476027 | 12.78° C | 88% | 1020.3 hPa | 0 mm | - | 438 W/m² | - |
| 1777475722 | 12.78° C | 89% | 1020.3 hPa | 0 mm | - | 822 W/m² | - |
| 1777475419 | 12.22° C | 90% | 1020.4 hPa | 0 mm | - | 910 W/m² | - |
| 1777475114 | 11.67° C | 91% | 1020.4 hPa | 0 mm | - | 392 W/m² | - |
| 1777474811 | 12.22° C | 90% | 1020.2 hPa | 0 mm | - | 236 W/m² | - |
| 1777474507 | 12.22° C | 90% | 1020.3 hPa | 0 mm | - | 678 W/m² | - |
| 1777474204 | 12.22° C | 90% | 1020.1 hPa | 0 mm | - | 726 W/m² | - |
| 1777473901 | 11.67° C | 91% | 1020 hPa | 0 mm | - | 638 W/m² | - |
| 1777473599 | 11.67° C | 91% | 1020.3 hPa | 0 mm | - | 644 W/m² | - |
| 1777473294 | 11.67° C | 92% | 1020.4 hPa | 0 mm | - | 124 W/m² | - |
| 1777472990 | 12.22° C | 90% | 1020.4 hPa | 0 mm | - | 167 W/m² | - |
| 1777472687 | 12.78° C | 91% | 1020.6 hPa | 0 mm | - | 294 W/m² | - |
| 1777472383 | 12.22° C | 89% | 1020.4 hPa | 0 mm | - | 230 W/m² | - |
| 1777472082 | 12.22° C | 90% | 1020.4 hPa | 0 mm | - | 486 W/m² | - |
| 1777471782 | 11.67° C | 91% | 1020.1 hPa | 0 mm | - | 399 W/m² | - |
| 1777471479 | 11.67° C | 92% | 1019.8 hPa | 0 mm | - | 366 W/m² | - |
| 1777471175 | 11.11° C | 93% | 1020.3 hPa | 0 mm | - | 124 W/m² | - |
| 1777470872 | 11.67° C | 92% | 1020.2 hPa | 0 mm | - | 138 W/m² | - |
| 1777470569 | 11.67° C | 92% | 1020.2 hPa | 0 mm | - | 170 W/m² | - |
| 1777470265 | 12.22° C | 90% | 1020 hPa | 0 mm | - | 308 W/m² | - |
| 1777469961 | 12.22° C | 92% | 1020.3 hPa | 0 mm | - | 284 W/m² | - |
| 1777469657 | 11.67° C | 94% | 1020.4 hPa | 0 mm | - | 263 W/m² | - |
| 1777469353 | 11.11° C | 97% | 1020 hPa | 0 mm | - | 255 W/m² | - |
| 1777469049 | 10.56° C | 99% | 1020 hPa | 0 mm | - | 262 W/m² | - |
| 1777468744 | 10.56° C | 99% | 1020.1 hPa | 0 mm | - | 239 W/m² | - |
* Rain latest hour (hover to see other rain measurements)
** Current wind speed in m/s (hover to see current wind gust speed)